createdAt,value
2023-04-30T00:01:38.370Z,96822.22
2023-04-30T00:03:40.090Z,96818.09
2023-04-30T00:05:41.660Z,96817.34
2023-04-30T00:07:43.150Z,96823.81
2023-04-30T00:09:44.612Z,96823.19
2023-04-30T00:11:46.894Z,96820.41
2023-04-30T00:13:49.756Z,96822.22
2023-04-30T00:15:51.342Z,96822.59
2023-04-30T00:17:53.047Z,96815.00
2023-04-30T00:19:54.908Z,96822.41
2023-04-30T00:21:56.554Z,96819.75
2023-04-30T00:23:58.059Z,96818.09
2023-04-30T00:25:59.539Z,96817.16
2023-04-30T00:28:01.046Z,96815.88
2023-04-30T00:30:05.498Z,96820.81
2023-04-30T00:32:07.057Z,96821.19
2023-04-30T00:34:08.585Z,96822.47
2023-04-30T00:36:10.130Z,96816.59
2023-04-30T00:38:12.291Z,96817.91
2023-04-30T00:40:13.971Z,96813.31
2023-04-30T00:42:15.512Z,96820.38
2023-04-30T00:44:17.057Z,96811.66
2023-04-30T00:46:19.929Z,96820.19
2023-04-30T00:48:21.751Z,96825.97
2023-04-30T00:50:23.613Z,96826.81
2023-04-30T00:52:25.357Z,96833.25
2023-04-30T00:54:27.156Z,96827.81
2023-04-30T00:56:29.200Z,96831.03
2023-04-30T00:58:31.090Z,96826.53
2023-04-30T01:00:33.246Z,96821.56
2023-04-30T01:02:36.413Z,96822.84
2023-04-30T01:04:38.361Z,96828.09
2023-04-30T01:06:40.167Z,96833.50
2023-04-30T01:08:41.828Z,96831.50
2023-04-30T01:10:53.629Z,96825.72
2023-04-30T01:13:01.630Z,96827.91
2023-04-30T01:15:08.779Z,96816.59
2023-04-30T01:17:21.761Z,96812.84
2023-04-30T01:19:35.378Z,96811.66
2023-04-30T01:21:39.183Z,96810.28
2023-04-30T01:23:47.968Z,96803.28
2023-04-30T01:26:06.658Z,96808.53
2023-04-30T01:28:14.698Z,96808.06
2023-04-30T01:30:18.204Z,96806.59
2023-04-30T01:32:19.878Z,96804.28
2023-04-30T01:34:21.378Z,96809.88
2023-04-30T01:36:50.323Z,96809.16
2023-04-30T01:39:28.550Z,96812.00
2023-04-30T01:41:35.275Z,96807.50
2023-04-30T01:43:50.004Z,96806.03
2023-04-30T01:46:01.477Z,96800.63
2023-04-30T01:48:16.217Z,96810.72
2023-04-30T01:50:28.556Z,96814.59
2023-04-30T01:52:36.363Z,96813.66
2023-04-30T01:54:45.012Z,96814.38
2023-04-30T01:56:56.588Z,96812.50
2023-04-30T01:59:00.424Z,96810.13
2023-04-30T02:01:01.782Z,96816.41
2023-04-30T02:03:03.512Z,96811.19
2023-04-30T02:05:05.680Z,96802.09
2023-04-30T02:07:07.305Z,96812.78
2023-04-30T02:09:08.772Z,96806.59
2023-04-30T02:11:10.270Z,96802.09
2023-04-30T02:13:11.745Z,96804.09
2023-04-30T02:15:15.173Z,96799.34
2023-04-30T02:17:16.641Z,96808.34
2023-04-30T02:19:18.448Z,96809.53
2023-04-30T02:21:19.905Z,96813.78
2023-04-30T02:23:21.519Z,96814.16
2023-04-30T02:25:22.967Z,96813.91
2023-04-30T02:27:25.719Z,96807.41
2023-04-30T02:29:27.188Z,96808.47
2023-04-30T02:31:30.162Z,96812.59
2023-04-30T02:33:31.737Z,96806.53
2023-04-30T02:35:33.273Z,96813.59
2023-04-30T02:37:34.877Z,96813.88
2023-04-30T02:39:36.493Z,96792.28
2023-04-30T02:41:37.984Z,96802.50
2023-04-30T02:43:39.450Z,96802.94
2023-04-30T02:45:41.058Z,96799.25
2023-04-30T02:47:43.999Z,96803.66
2023-04-30T02:49:45.513Z,96808.75
2023-04-30T02:51:47.120Z,96814.84
2023-04-30T02:53:48.620Z,96815.09
2023-04-30T02:55:50.105Z,96808.75
2023-04-30T02:57:51.660Z,96812.59
2023-04-30T02:59:53.501Z,96817.50
2023-04-30T03:01:55.148Z,96809.34
2023-04-30T03:03:58.016Z,96816.16
2023-04-30T03:05:59.591Z,96810.31
2023-04-30T03:08:01.191Z,96803.16
2023-04-30T03:10:02.903Z,96808.19
2023-04-30T03:12:04.977Z,96806.72
2023-04-30T03:14:06.466Z,96797.50
2023-04-30T03:16:08.018Z,96808.41
2023-04-30T03:18:09.817Z,96807.09
2023-04-30T03:20:13.195Z,96811.13
2023-04-30T03:22:14.685Z,96786.66
2023-04-30T03:24:16.156Z,96810.56
2023-04-30T03:26:17.756Z,96819.91
2023-04-30T03:28:19.237Z,96803.94
2023-04-30T03:30:20.937Z,96804.00
2023-04-30T03:32:25.205Z,96801.78
2023-04-30T03:34:26.761Z,96811.97
2023-04-30T03:36:29.654Z,96807.19
2023-04-30T03:38:32.283Z,96802.31
2023-04-30T03:40:33.847Z,96799.78
2023-04-30T03:42:35.302Z,96797.13
2023-04-30T03:44:36.801Z,96796.19
2023-04-30T03:46:38.415Z,96804.16
2023-04-30T03:48:39.959Z,96796.94
2023-04-30T03:50:41.604Z,96797.75
2023-04-30T03:52:44.654Z,96790.22
2023-04-30T03:54:46.119Z,96798.84
2023-04-30T03:56:47.644Z,96799.41
2023-04-30T03:58:49.328Z,96802.31
2023-04-30T04:00:50.922Z,96805.63
2023-04-30T04:02:52.570Z,96804.53
2023-04-30T04:04:54.271Z,96801.56
2023-04-30T04:06:55.800Z,96807.53
2023-04-30T04:08:58.726Z,96806.16
2023-04-30T04:11:00.286Z,96797.38
2023-04-30T04:13:01.807Z,96796.47
2023-04-30T04:15:03.572Z,96807.47
2023-04-30T04:17:05.076Z,96814.22
2023-04-30T04:19:06.561Z,96808.44
2023-04-30T04:21:08.171Z,96810.31
2023-04-30T04:23:09.625Z,96813.75
2023-04-30T04:25:12.451Z,96818.34
2023-04-30T04:27:14.153Z,96815.47
2023-04-30T04:29:15.626Z,96818.25
2023-04-30T04:31:17.168Z,96815.94
2023-04-30T04:33:18.680Z,96820.97
2023-04-30T04:35:20.163Z,96817.94
2023-04-30T04:37:21.822Z,96820.97
2023-04-30T04:39:23.442Z,96820.84
2023-04-30T04:41:26.297Z,96824.31
2023-04-30T04:43:27.821Z,96822.84
2023-04-30T04:45:29.294Z,96819.03
2023-04-30T04:47:30.789Z,96822.34
2023-04-30T04:49:32.254Z,96827.66
2023-04-30T04:51:33.811Z,96820.59
2023-04-30T04:53:35.337Z,96825.56
2023-04-30T04:55:36.826Z,96827.94
2023-04-30T04:57:39.734Z,96822.16
2023-04-30T04:59:41.232Z,96824.63
2023-04-30T05:01:42.761Z,96823.03
2023-04-30T05:03:44.307Z,96819.94
2023-04-30T05:05:45.914Z,96824.03
2023-04-30T05:07:47.456Z,96823.19
2023-04-30T05:09:48.941Z,96818.13
2023-04-30T05:11:50.775Z,96826.28
2023-04-30T05:13:53.611Z,96831.34
2023-04-30T05:15:55.089Z,96835.72
2023-04-30T05:17:56.641Z,96824.72
2023-04-30T05:19:58.172Z,96827.81
2023-04-30T05:21:59.691Z,96825.50
2023-04-30T05:24:01.398Z,96826.16
2023-04-30T05:26:02.940Z,96829.97
2023-04-30T05:28:04.628Z,96820.69
2023-04-30T05:30:08.928Z,96821.78
2023-04-30T05:32:10.582Z,96819.75
2023-04-30T05:34:12.116Z,96817.75
2023-04-30T05:36:14.156Z,96826.59
2023-04-30T05:38:15.864Z,96822.34
2023-04-30T05:40:17.522Z,96818.44
2023-04-30T05:42:19.144Z,96810.84
2023-04-30T05:44:20.625Z,96815.81
2023-04-30T05:46:23.559Z,96803.69
2023-04-30T05:48:25.173Z,96813.09
2023-04-30T05:50:26.642Z,96820.78
2023-04-30T05:52:28.258Z,96819.13
2023-04-30T05:54:30.015Z,96816.06
2023-04-30T05:56:31.477Z,96819.28
2023-04-30T05:58:32.985Z,96813.13
2023-04-30T06:00:34.491Z,96820.78
2023-04-30T06:02:37.384Z,96822.09
2023-04-30T06:04:39.014Z,96814.50
2023-04-30T06:06:40.582Z,96822.13
2023-04-30T06:08:42.192Z,96825.88
2023-04-30T06:10:43.729Z,96821.84
2023-04-30T06:12:45.205Z,96824.44
2023-04-30T06:14:46.765Z,96831.00
2023-04-30T06:16:49.414Z,96827.16
2023-04-30T06:18:53.653Z,96831.81
2023-04-30T06:20:55.565Z,96829.91
2023-04-30T06:22:57.047Z,96834.53
2023-04-30T06:24:58.558Z,96829.94
2023-04-30T06:27:00.334Z,96824.41
2023-04-30T06:29:01.885Z,96826.53
2023-04-30T06:31:03.459Z,96828.25
2023-04-30T06:33:04.961Z,96824.78
2023-04-30T06:35:08.821Z,96827.09
2023-04-30T06:37:10.379Z,96822.69
2023-04-30T06:39:14.735Z,96829.00
2023-04-30T06:41:16.476Z,96823.88
2023-04-30T06:43:17.950Z,96824.06
2023-04-30T06:45:19.717Z,96828.72
2023-04-30T06:47:21.268Z,96833.88
2023-04-30T06:49:22.864Z,96835.91
2023-04-30T06:51:25.781Z,96828.81
2023-04-30T06:53:27.304Z,96827.72
2023-04-30T06:55:28.986Z,96833.06
2023-04-30T06:57:30.481Z,96828.19
2023-04-30T06:59:31.932Z,96834.44
2023-04-30T07:01:33.450Z,96828.00
2023-04-30T07:03:35.312Z,96839.50
2023-04-30T07:05:36.981Z,96837.59
2023-04-30T07:07:39.828Z,96830.31
2023-04-30T07:09:41.352Z,96830.66
2023-04-30T07:11:42.882Z,96821.53
2023-04-30T07:13:44.342Z,96827.78
2023-04-30T07:15:46.335Z,96834.00
2023-04-30T07:17:47.878Z,96833.38
2023-04-30T07:19:49.388Z,96832.13
2023-04-30T07:21:50.873Z,96831.69
2023-04-30T07:23:53.724Z,96835.00
2023-04-30T07:25:55.223Z,96827.44
2023-04-30T07:27:56.723Z,96821.09
2023-04-30T07:29:58.204Z,96820.03
2023-04-30T07:31:59.863Z,96822.88
2023-04-30T07:34:01.375Z,96815.47
2023-04-30T07:36:02.881Z,96823.63
2023-04-30T07:38:04.355Z,96813.25
2023-04-30T07:40:08.582Z,96804.88
2023-04-30T07:42:10.054Z,96811.16
2023-04-30T07:44:11.572Z,96805.97
2023-04-30T07:46:13.079Z,96810.53
2023-04-30T07:48:14.690Z,96806.47
2023-04-30T07:50:16.597Z,96803.03
2023-04-30T07:52:18.129Z,96805.19
2023-04-30T07:54:19.694Z,96810.78
2023-04-30T07:56:22.618Z,96800.47
2023-04-30T07:58:24.184Z,96795.16
2023-04-30T08:00:25.810Z,96807.97
2023-04-30T08:02:27.520Z,96811.44
2023-04-30T08:04:29.295Z,96807.63
2023-04-30T08:06:30.883Z,96807.59
2023-04-30T08:08:32.516Z,96808.78
2023-04-30T08:10:34.297Z,96808.84
2023-04-30T08:12:37.412Z,96799.94
2023-04-30T08:14:38.926Z,96805.66
2023-04-30T08:16:40.528Z,96803.00
2023-04-30T08:18:42.100Z,96810.59
2023-04-30T08:20:43.615Z,96803.13
2023-04-30T08:22:45.118Z,96806.66
2023-04-30T08:24:46.826Z,96817.75
2023-04-30T08:26:48.334Z,96803.69
2023-04-30T08:28:51.174Z,96803.69
2023-04-30T08:30:52.626Z,96808.19
2023-04-30T08:32:56.776Z,96817.28
2023-04-30T08:34:59.102Z,96819.88
2023-04-30T08:37:00.930Z,96819.00
2023-04-30T08:39:02.394Z,96820.41
2023-04-30T08:41:09.445Z,96817.44
2023-04-30T08:43:11.436Z,96815.56
2023-04-30T08:45:14.598Z,96816.56
2023-04-30T08:47:17.009Z,96818.28
2023-04-30T08:49:18.546Z,96819.25
2023-04-30T08:51:21.656Z,96818.56
2023-04-30T08:53:23.287Z,96814.31
2023-04-30T08:55:24.957Z,96817.13
2023-04-30T08:57:26.481Z,96810.88
2023-04-30T08:59:28.096Z,96821.56
2023-04-30T09:01:31.005Z,96816.66
2023-04-30T09:03:32.780Z,96820.50
2023-04-30T09:05:34.394Z,96811.22
2023-04-30T09:07:39.841Z,96811.09
2023-04-30T09:09:41.558Z,96810.00
2023-04-30T09:11:43.227Z,96815.19
2023-04-30T09:13:44.775Z,96812.47
2023-04-30T09:15:51.918Z,96805.31
2023-04-30T09:18:08.831Z,96804.41
2023-04-30T09:20:12.236Z,96807.13
2023-04-30T09:22:20.722Z,96809.56
2023-04-30T09:24:22.864Z,96807.06
2023-04-30T09:26:30.681Z,96813.66
2023-04-30T09:28:32.174Z,96811.63
2023-04-30T09:30:33.731Z,96809.75
2023-04-30T09:32:35.307Z,96817.34
2023-04-30T09:34:38.271Z,96809.09
2023-04-30T09:36:51.886Z,96815.31
2023-04-30T09:38:53.612Z,96815.38
2023-04-30T09:40:55.484Z,96812.47
2023-04-30T09:43:00.421Z,96814.91
2023-04-30T09:45:04.600Z,96821.13
2023-04-30T09:47:11.441Z,96818.03
2023-04-30T09:49:13.003Z,96818.28
2023-04-30T09:51:16.150Z,96820.34
2023-04-30T09:53:18.202Z,96816.69
2023-04-30T09:55:22.136Z,96815.81
2023-04-30T09:57:24.678Z,96815.50
2023-04-30T09:59:29.443Z,96806.31
2023-04-30T10:01:31.738Z,96820.94
2023-04-30T10:03:34.028Z,96818.97
2023-04-30T10:05:43.106Z,96815.84
2023-04-30T10:07:46.459Z,96802.53
2023-04-30T10:09:50.369Z,96806.22
2023-04-30T10:11:52.264Z,96803.94
2023-04-30T10:13:58.171Z,96811.69
2023-04-30T10:16:07.361Z,96804.91
2023-04-30T10:18:17.904Z,96775.13
2023-04-30T10:20:23.278Z,96808.41
2023-04-30T10:22:25.092Z,96800.50
2023-04-30T10:24:28.083Z,96807.50
2023-04-30T10:26:30.279Z,96806.34
2023-04-30T10:28:32.802Z,96806.84
2023-04-30T10:30:35.424Z,96805.84
2023-04-30T10:32:43.876Z,96806.63
2023-04-30T10:34:53.083Z,96804.81
2023-04-30T10:36:57.451Z,96804.22
2023-04-30T10:39:00.322Z,96806.88
2023-04-30T10:41:06.588Z,96799.72
2023-04-30T10:43:11.402Z,96799.25
2023-04-30T10:45:13.178Z,96794.00
2023-04-30T10:47:16.946Z,96792.38
2023-04-30T10:49:24.689Z,96795.47
2023-04-30T10:51:44.855Z,96791.03
2023-04-30T10:53:50.059Z,96790.44
2023-04-30T10:55:53.679Z,96781.16
2023-04-30T10:57:58.141Z,96783.25
2023-04-30T11:00:24.466Z,96778.97
2023-04-30T11:02:38.950Z,96777.28
2023-04-30T11:05:12.191Z,96781.25
2023-04-30T11:07:13.799Z,96787.63
2023-04-30T11:09:15.398Z,96775.09
2023-04-30T11:11:18.788Z,96767.69
2023-04-30T11:13:21.651Z,96773.47
2023-04-30T11:15:26.385Z,96764.41
2023-04-30T11:17:28.097Z,96767.69
2023-04-30T11:19:29.760Z,96764.41
2023-04-30T11:21:31.786Z,96755.75
2023-04-30T11:25:41.140Z,96764.81
2023-04-30T11:27:44.187Z,96758.63
2023-04-30T11:29:47.723Z,96752.41
2023-04-30T11:31:49.818Z,96758.41
2023-04-30T11:33:52.300Z,96756.97
2023-04-30T11:35:54.718Z,96734.72
2023-04-30T11:37:57.970Z,96734.50
2023-04-30T11:40:01.453Z,96750.78
2023-04-30T11:42:02.999Z,96756.53
2023-04-30T11:44:21.775Z,96754.50
2023-04-30T11:46:24.633Z,96753.41
2023-04-30T11:48:31.138Z,96753.63
2023-04-30T11:50:33.576Z,96739.19
2023-04-30T11:52:35.073Z,96744.94
2023-04-30T11:54:37.294Z,96738.75
2023-04-30T11:56:40.899Z,96746.41
2023-04-30T11:58:42.976Z,96751.41
2023-04-30T12:00:44.499Z,96738.00
2023-04-30T12:02:49.814Z,96736.56
2023-04-30T12:04:51.582Z,96735.13
2023-04-30T12:06:53.121Z,96732.25
2023-04-30T12:08:55.086Z,96741.94
2023-04-30T12:10:56.534Z,96741.91
2023-04-30T12:12:58.114Z,96743.94
2023-04-30T12:15:11.534Z,96740.28
2023-04-30T12:17:29.991Z,96737.56
2023-04-30T12:19:32.884Z,96736.72
2023-04-30T12:21:34.809Z,96745.78
2023-04-30T12:23:36.557Z,96742.28
2023-04-30T12:25:41.753Z,96744.19
2023-04-30T12:27:46.531Z,96738.03
2023-04-30T12:29:48.232Z,96740.91
2023-04-30T12:31:49.982Z,96743.78
2023-04-30T12:33:55.436Z,96739.22
2023-04-30T12:35:58.388Z,96736.31
2023-04-30T12:38:04.441Z,96743.28
2023-04-30T12:40:08.149Z,96737.94
2023-04-30T12:42:09.566Z,96735.03
2023-04-30T12:44:17.604Z,96726.00
2023-04-30T12:46:26.628Z,96726.41
2023-04-30T12:48:28.117Z,96716.66
2023-04-30T12:50:29.761Z,96710.50
2023-04-30T12:52:32.839Z,96716.78
2023-04-30T12:54:35.456Z,96713.94
2023-04-30T12:56:36.988Z,96716.50
2023-04-30T12:58:39.459Z,96721.00
2023-04-30T13:00:48.275Z,96714.44
2023-04-30T13:02:49.821Z,96702.44
2023-04-30T13:04:52.551Z,96703.41
2023-04-30T13:06:54.014Z,96705.31
2023-04-30T13:08:58.554Z,96703.81
2023-04-30T13:11:00.614Z,96708.22
2023-04-30T13:13:02.085Z,96701.56
2023-04-30T13:15:04.115Z,96698.41
2023-04-30T13:17:06.057Z,96684.72
2023-04-30T13:19:07.770Z,96683.41
2023-04-30T13:21:09.416Z,96697.69
2023-04-30T13:23:11.168Z,96692.34
2023-04-30T13:25:13.995Z,96697.47
2023-04-30T13:27:15.755Z,96676.16
2023-04-30T13:29:17.194Z,96699.78
2023-04-30T13:31:18.831Z,96698.41
2023-04-30T13:33:20.403Z,96695.81
2023-04-30T13:35:22.350Z,96661.63
2023-04-30T13:37:24.383Z,96690.16
2023-04-30T13:39:25.874Z,96690.06
2023-04-30T13:41:28.737Z,96690.28
2023-04-30T13:43:30.375Z,96685.75
2023-04-30T13:45:31.867Z,96681.44
2023-04-30T13:47:33.359Z,96680.78
2023-04-30T13:49:34.841Z,96676.41
2023-04-30T13:51:36.815Z,96677.47
2023-04-30T13:53:38.276Z,96677.03
2023-04-30T13:55:42.293Z,96676.34
2023-04-30T13:57:45.158Z,96684.97
2023-04-30T13:59:46.662Z,96680.44
2023-04-30T14:01:48.160Z,96679.03
2023-04-30T14:03:49.819Z,96672.44
2023-04-30T14:05:51.460Z,96669.00
2023-04-30T14:07:53.025Z,96666.38
2023-04-30T14:09:54.633Z,96661.59
2023-04-30T14:11:56.316Z,96671.09
2023-04-30T14:13:59.246Z,96666.94
2023-04-30T14:16:00.793Z,96666.69
2023-04-30T14:18:02.406Z,96673.03
2023-04-30T14:20:04.568Z,96667.97
2023-04-30T14:22:06.061Z,96651.06
2023-04-30T14:24:08.115Z,96661.63
2023-04-30T14:26:09.660Z,96653.81
2023-04-30T14:28:11.127Z,96651.41
2023-04-30T14:30:15.395Z,96658.34
2023-04-30T14:32:17.326Z,96642.41
2023-04-30T14:34:18.891Z,96660.84
2023-04-30T14:36:20.706Z,96649.16
2023-04-30T14:38:22.410Z,96632.38
2023-04-30T14:40:24.048Z,96636.22
2023-04-30T14:42:25.526Z,96636.88
2023-04-30T14:44:27.055Z,96637.38
2023-04-30T14:46:30.157Z,96631.50
2023-04-30T14:48:31.728Z,96624.63
2023-04-30T14:50:33.275Z,96631.25
2023-04-30T14:52:34.761Z,96624.38
2023-04-30T14:54:36.223Z,96625.94
2023-04-30T14:56:37.711Z,96621.38
2023-04-30T14:58:39.212Z,96622.25
2023-04-30T15:00:40.941Z,96618.06
2023-04-30T15:02:43.849Z,96617.06
2023-04-30T15:04:45.449Z,96612.44
2023-04-30T15:06:47.436Z,96610.13
2023-04-30T15:08:48.935Z,96611.53
2023-04-30T15:10:50.483Z,96621.88
2023-04-30T15:12:51.986Z,96613.50
2023-04-30T15:14:53.499Z,96621.50
2023-04-30T15:16:55.122Z,96621.19
2023-04-30T15:18:58.898Z,96608.44
2023-04-30T15:21:00.365Z,96619.56
2023-04-30T15:23:01.874Z,96615.34
2023-04-30T15:25:03.546Z,96632.56
2023-04-30T15:27:05.067Z,96621.38
2023-04-30T15:29:06.539Z,96627.63
2023-04-30T15:31:08.068Z,96618.41
2023-04-30T15:33:09.659Z,96626.97
2023-04-30T15:35:12.980Z,96624.25
2023-04-30T15:37:14.474Z,96611.56
2023-04-30T15:39:15.968Z,96620.75
2023-04-30T15:41:17.446Z,96616.78
2023-04-30T15:43:18.933Z,96607.34
2023-04-30T15:45:20.412Z,96605.56
2023-04-30T15:47:23.975Z,96604.53
2023-04-30T15:49:25.766Z,96599.13
2023-04-30T15:51:28.625Z,96593.75
2023-04-30T15:53:30.198Z,96603.81
2023-04-30T15:55:32.027Z,96603.31
2023-04-30T15:57:33.588Z,96599.03
2023-04-30T15:59:35.088Z,96599.41
2023-04-30T16:01:36.666Z,96590.31
2023-04-30T16:03:38.346Z,96589.31
2023-04-30T16:05:40.053Z,96583.00
2023-04-30T16:07:44.020Z,96588.22
2023-04-30T16:09:45.729Z,96594.19
2023-04-30T16:11:47.451Z,96589.41
2023-04-30T16:13:48.938Z,96597.22
2023-04-30T16:15:50.395Z,96588.00
2023-04-30T16:17:52.212Z,96582.50
2023-04-30T16:19:53.802Z,96575.78
2023-04-30T16:21:55.696Z,96580.66
2023-04-30T16:23:58.536Z,96580.28
2023-04-30T16:26:00.015Z,96586.09
2023-04-30T16:28:01.465Z,96575.03
2023-04-30T16:30:03.674Z,96584.47
2023-04-30T16:32:05.468Z,96586.25
2023-04-30T16:34:07.240Z,96585.44
2023-04-30T16:36:08.856Z,96595.63
2023-04-30T16:38:10.601Z,96564.16
2023-04-30T16:40:13.494Z,96585.25
2023-04-30T16:42:14.968Z,96567.47
2023-04-30T16:44:16.953Z,96567.75
2023-04-30T16:46:18.430Z,96557.84
2023-04-30T16:48:20.037Z,96561.13
2023-04-30T16:50:21.939Z,96566.25
2023-04-30T16:52:23.498Z,96565.22
2023-04-30T16:54:24.960Z,96561.22
2023-04-30T16:56:28.276Z,96563.81
2023-04-30T16:58:29.748Z,96567.38
2023-04-30T17:00:31.792Z,96550.94
2023-04-30T17:02:33.644Z,96554.56
2023-04-30T17:04:35.310Z,96565.47
2023-04-30T17:06:38.941Z,96562.28
2023-04-30T17:08:40.274Z,96563.88
2023-04-30T17:10:41.763Z,96563.44
2023-04-30T17:12:44.761Z,96567.53
2023-04-30T17:14:46.265Z,96563.03
2023-04-30T17:16:48.184Z,96571.03
2023-04-30T17:18:49.692Z,96565.69
2023-04-30T17:20:51.457Z,96570.84
2023-04-30T17:22:52.964Z,96569.28
2023-04-30T17:24:54.484Z,96572.63
2023-04-30T17:26:55.947Z,96582.84
2023-04-30T17:28:58.826Z,96567.16
2023-04-30T17:31:00.328Z,96579.16
2023-04-30T17:33:01.990Z,96578.34
2023-04-30T17:35:05.969Z,96578.59
2023-04-30T17:37:08.009Z,96585.78
2023-04-30T17:39:09.662Z,96583.31
2023-04-30T17:41:11.163Z,96583.34
2023-04-30T17:43:13.014Z,96578.84
2023-04-30T17:45:16.029Z,96585.25
2023-04-30T17:47:17.511Z,96586.50
2023-04-30T17:49:18.978Z,96592.91
2023-04-30T17:51:20.613Z,96585.97
2023-04-30T17:53:22.132Z,96588.84
2023-04-30T17:55:23.923Z,96587.00
2023-04-30T17:57:25.557Z,96588.88
2023-04-30T17:59:28.754Z,96588.22
2023-04-30T18:01:31.701Z,96583.28
2023-04-30T18:03:33.289Z,96595.03
2023-04-30T18:05:35.646Z,96582.66
2023-04-30T18:07:37.632Z,96591.75
2023-04-30T18:09:39.081Z,96594.63
2023-04-30T18:11:40.552Z,96597.09
2023-04-30T18:13:42.071Z,96586.22
2023-04-30T18:15:43.670Z,96602.91
2023-04-30T18:17:46.652Z,96600.00
2023-04-30T18:19:48.182Z,96604.94
2023-04-30T18:21:49.739Z,96607.84
2023-04-30T18:23:51.390Z,96596.50
2023-04-30T18:25:52.842Z,96609.47
2023-04-30T18:27:54.331Z,96593.84
2023-04-30T18:29:56.428Z,96606.59
2023-04-30T18:31:58.272Z,96603.31
2023-04-30T18:34:01.145Z,96603.09
2023-04-30T18:36:05.509Z,96600.03
2023-04-30T18:38:07.451Z,96595.91
2023-04-30T18:40:09.975Z,96600.44
2023-04-30T18:42:11.824Z,96594.69
2023-04-30T18:44:13.349Z,96600.03
2023-04-30T18:46:15.156Z,96591.78
2023-04-30T18:48:16.722Z,96591.59
2023-04-30T18:50:19.874Z,96592.84
2023-04-30T18:52:21.849Z,96591.81
2023-04-30T18:54:23.792Z,96593.44
2023-04-30T18:56:25.523Z,96593.84
2023-04-30T18:58:27.198Z,96601.66
2023-04-30T19:00:28.680Z,96593.03
2023-04-30T19:02:30.379Z,96600.44
2023-04-30T19:04:32.061Z,96595.91
2023-04-30T19:06:34.892Z,96601.25
2023-04-30T19:08:36.400Z,96601.25
2023-04-30T19:10:37.950Z,96590.97
2023-04-30T19:12:39.429Z,96598.16
2023-04-30T19:14:41.001Z,96602.28
2023-04-30T19:16:42.602Z,96610.31
2023-04-30T19:18:44.164Z,96604.72
2023-04-30T19:20:54.925Z,96609.03
2023-04-30T19:22:57.745Z,96609.03
2023-04-30T19:24:59.195Z,96613.13
2023-04-30T19:27:00.704Z,96606.16
2023-04-30T19:29:02.824Z,96610.25
2023-04-30T19:31:04.394Z,96610.03
2023-04-30T19:33:06.073Z,96613.13
2023-04-30T19:35:08.465Z,96613.53
2023-04-30T19:37:10.474Z,96612.09
2023-04-30T19:39:13.308Z,96610.44
2023-04-30T19:41:14.759Z,96610.63
2023-04-30T19:43:16.252Z,96614.34
2023-04-30T19:45:18.125Z,96619.28
2023-04-30T19:47:19.966Z,96613.50
2023-04-30T19:49:21.563Z,96615.53
2023-04-30T19:51:23.126Z,96612.66
2023-04-30T19:53:24.767Z,96613.06
2023-04-30T19:55:27.614Z,96598.22
2023-04-30T19:57:29.418Z,96611.81
2023-04-30T19:59:30.953Z,96608.13
2023-04-30T20:01:32.473Z,96602.97
2023-04-30T20:03:34.559Z,96608.09
2023-04-30T20:05:36.735Z,96607.28
2023-04-30T20:07:38.191Z,96613.44
2023-04-30T20:09:39.744Z,96613.84
2023-04-30T20:11:42.609Z,96610.97
2023-04-30T20:13:44.061Z,96614.41
2023-04-30T20:15:45.761Z,96613.16
2023-04-30T20:17:47.361Z,96611.72
2023-04-30T20:19:48.990Z,96613.34
2023-04-30T20:21:50.607Z,96608.00
2023-04-30T20:23:52.066Z,96624.00
2023-04-30T20:25:53.614Z,96603.47
2023-04-30T20:27:56.469Z,96612.50
2023-04-30T20:29:58.320Z,96612.31
2023-04-30T20:32:00.048Z,96613.97
2023-04-30T20:34:02.993Z,96608.41
2023-04-30T20:36:04.844Z,96618.28
2023-04-30T20:38:06.522Z,96607.16
2023-04-30T20:40:09.160Z,96612.09
2023-04-30T20:42:10.630Z,96608.13
2023-04-30T20:44:14.262Z,96599.88
2023-04-30T20:46:15.828Z,96598.88
2023-04-30T20:48:17.526Z,96605.47
2023-04-30T20:50:19.534Z,96603.59
2023-04-30T20:52:21.011Z,96598.84
2023-04-30T20:54:22.627Z,96600.25
2023-04-30T20:56:24.494Z,96596.13
2023-04-30T20:58:26.094Z,96594.88
2023-04-30T21:00:29.055Z,96588.53
2023-04-30T21:02:30.708Z,96594.25
2023-04-30T21:04:35.454Z,96592.22
2023-04-30T21:06:37.023Z,96591.34
2023-04-30T21:08:40.301Z,96590.34
2023-04-30T21:10:42.098Z,96577.38
2023-04-30T21:12:43.637Z,96586.41
2023-04-30T21:14:45.223Z,96590.50
2023-04-30T21:16:48.720Z,96586.78
2023-04-30T21:18:50.645Z,96572.16
2023-04-30T21:20:52.181Z,96586.78
2023-04-30T21:22:53.693Z,96586.56
2023-04-30T21:24:55.217Z,96581.44
2023-04-30T21:26:56.686Z,96579.34
2023-04-30T21:28:58.493Z,96574.97
2023-04-30T21:31:03.945Z,96573.66
2023-04-30T21:33:07.461Z,96571.78
2023-04-30T21:35:09.709Z,96573.81
2023-04-30T21:37:11.547Z,96564.81
2023-04-30T21:39:13.045Z,96577.47
2023-04-30T21:41:15.565Z,96578.44
2023-04-30T21:43:17.844Z,96578.81
2023-04-30T21:45:19.900Z,96569.56
2023-04-30T21:47:21.884Z,96572.00
2023-04-30T21:49:24.726Z,96574.03
2023-04-30T21:51:26.213Z,96572.38
2023-04-30T21:53:27.912Z,96556.75
2023-04-30T21:55:31.826Z,96565.78
2023-04-30T21:57:33.387Z,96556.72
2023-04-30T21:59:34.872Z,96556.53
2023-04-30T22:01:36.452Z,96557.53
2023-04-30T22:03:38.109Z,96547.66
2023-04-30T22:05:40.999Z,96547.22
2023-04-30T22:07:42.585Z,96536.41
2023-04-30T22:09:44.807Z,96552.91
2023-04-30T22:11:46.327Z,96549.78
2023-04-30T22:13:47.946Z,96542.19
2023-04-30T22:15:50.639Z,96542.19
2023-04-30T22:17:52.125Z,96545.22
2023-04-30T22:19:53.909Z,96529.78
2023-04-30T22:21:57.061Z,96540.28
2023-04-30T22:23:58.631Z,96537.13
2023-04-30T22:26:00.136Z,96540.13
2023-04-30T22:28:01.829Z,96534.66
2023-04-30T22:30:03.764Z,96538.09
2023-04-30T22:32:05.614Z,96536.84
2023-04-30T22:34:07.843Z,96541.53
2023-04-30T22:36:10.338Z,96540.25
2023-04-30T22:38:13.136Z,96532.91
2023-04-30T22:40:14.811Z,96535.94
2023-04-30T22:42:16.320Z,96531.56
2023-04-30T22:44:18.439Z,96538.47
2023-04-30T22:46:20.006Z,96531.31
2023-04-30T22:48:22.611Z,96523.56
2023-04-30T22:50:24.158Z,96534.66
2023-04-30T22:52:25.622Z,96529.66
2023-04-30T22:54:29.080Z,96530.34
2023-04-30T22:56:30.974Z,96529.91
2023-04-30T22:58:32.429Z,96530.03
2023-04-30T23:00:34.621Z,96527.56
2023-04-30T23:02:36.143Z,96533.91
2023-04-30T23:04:37.756Z,96530.22
2023-04-30T23:06:39.531Z,96525.28
2023-04-30T23:08:41.039Z,96528.59
2023-04-30T23:10:44.945Z,96534.34
2023-04-30T23:12:46.454Z,96538.41
2023-04-30T23:14:48.068Z,96544.94
2023-04-30T23:16:49.897Z,96535.47
2023-04-30T23:18:51.447Z,96543.94
2023-04-30T23:20:54.801Z,96533.28
2023-04-30T23:22:56.245Z,96537.72
2023-04-30T23:24:57.695Z,96538.72
2023-04-30T23:27:00.628Z,96531.19
2023-04-30T23:29:02.187Z,96537.41
2023-04-30T23:31:03.714Z,96533.66
2023-04-30T23:33:05.249Z,96534.50
2023-04-30T23:35:07.904Z,96530.81
2023-04-30T23:37:09.583Z,96526.13
2023-04-30T23:39:11.096Z,96532.38
2023-04-30T23:41:12.597Z,96527.97
2023-04-30T23:43:15.625Z,96530.25
2023-04-30T23:45:17.569Z,96527.97
2023-04-30T23:47:19.105Z,96519.34
2023-04-30T23:49:21.135Z,96518.72
2023-04-30T23:51:23.098Z,96511.75
2023-04-30T23:53:24.667Z,96474.06
2023-04-30T23:55:26.113Z,96512.75
2023-04-30T23:57:27.605Z,96513.75
2023-04-30T23:59:30.423Z,96507.44
